createdAt,value
2019-03-23T00:02:05.157Z,101035.48
2019-03-23T00:04:36.127Z,101044.71
2019-03-23T00:07:07.081Z,101044.30
2019-03-23T00:09:38.028Z,101048.76
2019-03-23T00:12:08.971Z,101048.40
2019-03-23T00:14:39.850Z,101058.09
2019-03-23T00:17:10.842Z,101053.72
2019-03-23T00:19:42.905Z,101048.45
2019-03-23T00:22:13.822Z,101053.30
2019-03-23T00:24:44.810Z,101048.00
2019-03-23T00:27:15.897Z,101045.83
2019-03-23T00:29:46.859Z,101045.59
2019-03-23T00:32:18.043Z,101040.23
2019-03-23T00:34:49.044Z,101044.55
2019-03-23T00:37:20.044Z,101041.97
2019-03-23T00:39:50.899Z,101035.75
2019-03-23T00:42:22.020Z,101045.00
2019-03-23T00:44:52.962Z,101043.19
2019-03-23T00:47:23.991Z,101041.92
2019-03-23T00:49:54.988Z,101045.06
2019-03-23T00:52:26.080Z,101047.73
2019-03-23T00:54:57.262Z,101047.70
2019-03-23T00:57:28.387Z,101037.17
2019-03-23T01:00:00.315Z,101038.08
2019-03-23T01:02:31.361Z,101036.80
2019-03-23T01:05:02.463Z,101036.26
2019-03-23T01:07:33.584Z,101039.92
2019-03-23T01:10:07.870Z,101045.19
2019-03-23T01:12:38.803Z,101043.42
2019-03-23T01:15:11.244Z,101048.33
2019-03-23T01:17:42.271Z,101035.20
2019-03-23T01:20:13.772Z,101035.20
2019-03-23T01:22:44.614Z,101040.47
2019-03-23T01:25:15.590Z,101046.15
2019-03-23T01:27:47.038Z,101045.29
2019-03-23T01:30:17.896Z,101039.58
2019-03-23T01:32:48.875Z,101047.48
2019-03-23T01:35:19.831Z,101039.98
2019-03-23T01:37:50.754Z,101051.05
2019-03-23T01:40:21.678Z,101048.84
2019-03-23T01:42:52.626Z,101047.99
2019-03-23T01:45:23.733Z,101044.45
2019-03-23T01:47:54.680Z,101034.78
2019-03-23T01:50:25.711Z,101051.03
2019-03-23T01:52:56.661Z,101047.57
2019-03-23T01:55:27.553Z,101044.06
2019-03-23T01:57:59.639Z,101049.33
2019-03-23T02:00:31.320Z,101052.86
2019-03-23T02:03:02.387Z,101048.04
2019-03-23T02:05:33.203Z,101045.41
2019-03-23T02:08:04.078Z,101042.77
2019-03-23T02:10:34.982Z,101046.30
2019-03-23T02:13:06.260Z,101048.91
2019-03-23T02:15:37.248Z,101049.36
2019-03-23T02:18:08.148Z,101051.13
2019-03-23T02:20:39.087Z,101052.01
2019-03-23T02:23:10.042Z,101044.98
2019-03-23T02:25:40.898Z,101044.97
2019-03-23T02:28:11.945Z,101050.70
2019-03-23T02:30:42.970Z,101047.63
2019-03-23T02:33:14.103Z,101048.05
2019-03-23T02:35:46.125Z,101044.13
2019-03-23T02:38:17.232Z,101054.23
2019-03-23T02:40:49.384Z,101049.81
2019-03-23T02:43:20.526Z,101052.48
2019-03-23T02:45:51.551Z,101056.89
2019-03-23T02:48:22.654Z,101058.19
2019-03-23T02:50:53.751Z,101058.21
2019-03-23T02:53:24.851Z,101061.70
2019-03-23T02:55:57.177Z,101064.79
2019-03-23T02:58:28.235Z,101055.09
2019-03-23T03:00:59.964Z,101078.41
2019-03-23T03:03:31.031Z,101072.27
2019-03-23T03:06:01.895Z,101069.20
2019-03-23T03:08:33.161Z,101080.18
2019-03-23T03:11:04.130Z,101075.80
2019-03-23T03:13:35.012Z,101081.51
2019-03-23T03:16:06.186Z,101078.44
2019-03-23T03:18:37.121Z,101085.45
2019-03-23T03:21:07.996Z,101087.22
2019-03-23T03:23:41.127Z,101091.61
2019-03-23T03:26:14.044Z,101087.23
2019-03-23T03:28:44.846Z,101096.42
2019-03-23T03:31:15.714Z,101094.68
2019-03-23T03:33:47.751Z,101099.94
2019-03-23T03:36:19.613Z,101102.59
2019-03-23T03:38:50.817Z,101104.30
2019-03-23T03:41:21.828Z,101103.01
2019-03-23T03:43:54.247Z,101106.98
2019-03-23T03:46:25.231Z,101110.94
2019-03-23T03:48:56.175Z,101109.17
2019-03-23T03:51:26.971Z,101110.06
2019-03-23T03:53:57.846Z,101115.78
2019-03-23T03:56:28.755Z,101121.95
2019-03-23T03:58:59.704Z,101125.88
2019-03-23T04:01:32.009Z,101130.29
2019-03-23T04:04:03.112Z,101133.33
2019-03-23T04:06:33.902Z,101129.40
2019-03-23T04:09:06.530Z,101132.91
2019-03-23T04:11:37.402Z,101134.27
2019-03-23T04:14:08.274Z,101138.62
2019-03-23T04:16:39.198Z,101137.31
2019-03-23T04:19:10.199Z,101137.73
2019-03-23T04:21:41.161Z,101137.27
2019-03-23T04:24:12.037Z,101138.63
2019-03-23T04:26:43.034Z,101150.02
2019-03-23T04:29:13.888Z,101150.41
2019-03-23T04:31:44.880Z,101135.52
2019-03-23T04:34:15.916Z,101145.68
2019-03-23T04:36:46.864Z,101151.75
2019-03-23T04:39:17.848Z,101153.53
2019-03-23T04:41:48.847Z,101155.28
2019-03-23T04:44:19.830Z,101161.38
2019-03-23T04:46:51.479Z,101160.13
2019-03-23T04:49:27.890Z,101169.37
2019-03-23T04:51:58.943Z,101171.59
2019-03-23T04:54:31.263Z,101185.66
2019-03-23T04:57:02.306Z,101177.78
2019-03-23T04:59:33.369Z,101180.86
2019-03-23T05:02:05.258Z,101196.23
2019-03-23T05:04:36.444Z,101186.59
2019-03-23T05:07:07.779Z,101179.11
2019-03-23T05:09:39.024Z,101187.89
2019-03-23T05:12:10.033Z,101183.52
2019-03-23T05:14:41.006Z,101185.27
2019-03-23T05:17:12.019Z,101194.55
2019-03-23T05:19:42.983Z,101193.19
2019-03-23T05:22:14.055Z,101194.52
2019-03-23T05:24:45.069Z,101205.50
2019-03-23T05:27:16.058Z,101194.52
2019-03-23T05:29:47.056Z,101183.94
2019-03-23T05:32:18.196Z,101190.10
2019-03-23T05:34:49.468Z,101190.55
2019-03-23T05:37:20.561Z,101191.46
2019-03-23T05:39:51.657Z,101176.91
2019-03-23T05:42:22.661Z,101183.09
2019-03-23T05:44:53.659Z,101188.80
2019-03-23T05:47:24.807Z,101198.92
2019-03-23T05:49:55.915Z,101195.39
2019-03-23T05:52:27.041Z,101186.61
2019-03-23T05:54:58.009Z,101182.59
2019-03-23T05:57:29.045Z,101185.23
2019-03-23T06:00:00.363Z,101187.39
2019-03-23T06:02:32.238Z,101193.59
2019-03-23T06:05:03.330Z,101192.33
2019-03-23T06:07:34.326Z,101183.02
2019-03-23T06:10:08.225Z,101198.00
2019-03-23T06:12:39.155Z,101182.52
2019-03-23T06:15:10.898Z,101193.53
2019-03-23T06:17:41.797Z,101187.81
2019-03-23T06:20:12.714Z,101177.69
2019-03-23T06:22:43.584Z,101189.94
2019-03-23T06:25:14.543Z,101184.25
2019-03-23T06:27:47.779Z,101188.19
2019-03-23T06:30:18.811Z,101189.05
2019-03-23T06:32:49.834Z,101187.73
2019-03-23T06:35:20.962Z,101188.61
2019-03-23T06:37:51.958Z,101201.41
2019-03-23T06:40:22.914Z,101198.76
2019-03-23T06:42:59.661Z,101203.13
2019-03-23T06:45:26.937Z,101204.42
2019-03-23T06:47:58.076Z,101203.50
2019-03-23T06:50:29.192Z,101206.91
2019-03-23T06:53:00.198Z,101206.52
2019-03-23T06:55:31.548Z,101204.22
2019-03-23T06:58:02.751Z,101194.09
2019-03-23T07:00:33.755Z,101206.51
2019-03-23T07:03:10.012Z,101190.63
2019-03-23T07:05:41.366Z,101194.20
2019-03-23T07:08:14.518Z,101199.02
2019-03-23T07:10:45.652Z,101199.31
2019-03-23T07:13:16.640Z,101189.05
2019-03-23T07:15:47.755Z,101209.11
2019-03-23T07:18:18.720Z,101190.55
2019-03-23T07:20:49.635Z,101207.76
2019-03-23T07:23:20.596Z,101192.70
2019-03-23T07:25:51.962Z,101180.85
2019-03-23T07:28:24.420Z,101186.11
2019-03-23T07:30:55.392Z,101193.13
2019-03-23T07:33:26.316Z,101188.12
2019-03-23T07:35:57.198Z,101183.27
2019-03-23T07:38:28.070Z,101192.07
2019-03-23T07:40:59.009Z,101187.71
2019-03-23T07:43:29.813Z,101167.66
2019-03-23T07:46:00.688Z,101170.77
2019-03-23T07:48:31.496Z,101179.97
2019-03-23T07:51:02.353Z,101176.77
2019-03-23T07:53:33.185Z,101172.29
2019-03-23T07:56:04.130Z,101179.81
2019-03-23T07:58:34.915Z,101167.69
2019-03-23T08:01:05.768Z,101177.20
2019-03-23T08:03:37.364Z,101192.11
2019-03-23T08:06:08.357Z,101186.47
2019-03-23T08:08:42.030Z,101182.31
2019-03-23T08:11:13.046Z,101188.85
2019-03-23T08:13:43.977Z,101175.73
2019-03-23T08:16:14.977Z,101183.67
2019-03-23T08:18:45.808Z,101169.23
2019-03-23T08:21:16.762Z,101171.33
2019-03-23T08:23:47.793Z,101164.14
2019-03-23T08:26:18.682Z,101166.34
2019-03-23T08:28:50.556Z,101168.16
2019-03-23T08:31:21.537Z,101176.45
2019-03-23T08:33:52.496Z,101163.97
2019-03-23T08:36:24.609Z,101172.16
2019-03-23T08:38:56.431Z,101170.10
2019-03-23T08:41:27.490Z,101162.93
2019-03-23T08:43:58.367Z,101161.32
2019-03-23T08:46:30.346Z,101167.25
2019-03-23T08:49:01.199Z,101169.86
2019-03-23T08:51:32.211Z,101162.64
2019-03-23T08:54:03.147Z,101163.73
2019-03-23T08:56:34.082Z,101163.89
2019-03-23T08:59:07.012Z,101158.73
2019-03-23T09:01:37.951Z,101165.37
2019-03-23T09:04:09.846Z,101163.30
2019-03-23T09:06:40.843Z,101141.95
2019-03-23T09:09:11.666Z,101156.63
2019-03-23T09:11:42.660Z,101161.13
2019-03-23T09:14:13.532Z,101150.48
2019-03-23T09:16:44.554Z,101158.38
2019-03-23T09:19:15.413Z,101153.69
2019-03-23T09:21:46.309Z,101161.67
2019-03-23T09:24:17.198Z,101151.65
2019-03-23T09:26:49.092Z,101154.42
2019-03-23T09:29:20.050Z,101156.17
2019-03-23T09:31:51.047Z,101162.00
2019-03-23T09:34:21.972Z,101161.23
2019-03-23T09:36:52.987Z,101164.66
2019-03-23T09:39:23.877Z,101177.51
2019-03-23T09:41:54.884Z,101166.89
2019-03-23T09:44:25.771Z,101171.33
2019-03-23T09:46:56.646Z,101167.28
2019-03-23T09:49:27.506Z,101178.48
2019-03-23T09:51:58.547Z,101171.78
2019-03-23T09:54:29.390Z,101177.87
2019-03-23T09:57:00.222Z,101171.69
2019-03-23T09:59:32.905Z,101173.82
2019-03-23T10:02:03.897Z,101172.95
2019-03-23T10:04:35.553Z,101186.49
2019-03-23T10:07:06.621Z,101188.22
2019-03-23T10:09:37.697Z,101180.28
2019-03-23T10:12:08.671Z,101173.09
2019-03-23T10:14:39.522Z,101181.33
2019-03-23T10:17:10.436Z,101182.29
2019-03-23T10:19:41.398Z,101187.94
2019-03-23T10:22:13.300Z,101188.19
2019-03-23T10:24:44.238Z,101201.73
2019-03-23T10:27:15.170Z,101199.64
2019-03-23T10:29:46.061Z,101197.28
2019-03-23T10:32:18.803Z,101198.61
2019-03-23T10:34:49.768Z,101183.30
2019-03-23T10:37:22.506Z,101188.48
2019-03-23T10:39:53.493Z,101191.27
2019-03-23T10:42:24.509Z,101194.84
2019-03-23T10:44:55.481Z,101195.78
2019-03-23T10:47:29.251Z,101193.52
2019-03-23T10:50:00.317Z,101191.08
2019-03-23T10:52:31.195Z,101202.94
2019-03-23T10:55:02.179Z,101182.44
2019-03-23T10:57:33.104Z,101194.76
2019-03-23T11:00:07.892Z,101199.89
2019-03-23T11:02:40.271Z,101195.75
2019-03-23T11:05:12.121Z,101194.52
2019-03-23T11:07:43.088Z,101202.81
2019-03-23T11:10:14.014Z,101174.34
2019-03-23T11:12:45.044Z,101194.33
2019-03-23T11:15:16.005Z,101191.67
2019-03-23T11:17:46.823Z,101184.16
2019-03-23T11:20:17.769Z,101179.45
2019-03-23T11:22:48.830Z,101177.38
2019-03-23T11:25:19.669Z,101181.50
2019-03-23T11:27:50.536Z,101179.04
2019-03-23T11:30:21.506Z,101167.98
2019-03-23T11:32:52.414Z,101181.23
2019-03-23T11:35:23.410Z,101177.80
2019-03-23T11:37:56.317Z,101175.87
2019-03-23T11:40:27.432Z,101185.52
2019-03-23T11:42:58.302Z,101169.77
2019-03-23T11:45:29.293Z,101161.78
2019-03-23T11:48:00.221Z,101164.91
2019-03-23T11:50:31.094Z,101178.56
2019-03-23T11:53:01.964Z,101168.73
2019-03-23T11:55:32.762Z,101168.78
2019-03-23T11:58:03.710Z,101163.00
2019-03-23T12:00:34.766Z,101169.52
2019-03-23T12:03:05.597Z,101168.36
2019-03-23T12:05:37.237Z,101175.03
2019-03-23T12:08:08.263Z,101167.03
2019-03-23T12:10:39.151Z,101169.00
2019-03-23T12:13:10.106Z,101182.86
2019-03-23T12:15:40.947Z,101175.87
2019-03-23T12:18:11.799Z,101173.92
2019-03-23T12:20:42.748Z,101176.30
2019-03-23T12:23:13.765Z,101173.78
2019-03-23T12:25:44.997Z,101181.62
2019-03-23T12:28:15.895Z,101181.38
2019-03-23T12:30:46.803Z,101180.50
2019-03-23T12:33:17.852Z,101173.78
2019-03-23T12:35:48.813Z,101169.50
2019-03-23T12:38:19.646Z,101167.44
2019-03-23T12:40:50.625Z,101164.91
2019-03-23T12:43:21.654Z,101165.34
2019-03-23T12:45:52.499Z,101149.66
2019-03-23T12:48:23.318Z,101150.95
2019-03-23T12:50:54.211Z,101152.78
2019-03-23T12:53:25.207Z,101161.17
2019-03-23T12:55:56.037Z,101163.11
2019-03-23T12:58:27.001Z,101155.22
2019-03-23T13:00:57.915Z,101166.58
2019-03-23T13:03:28.753Z,101172.84
2019-03-23T13:06:00.658Z,101170.36
2019-03-23T13:08:31.769Z,101167.52
2019-03-23T13:11:02.624Z,101166.00
2019-03-23T13:13:34.629Z,101165.17
2019-03-23T13:16:05.536Z,101163.95
2019-03-23T13:18:36.504Z,101169.12
2019-03-23T13:21:07.394Z,101156.47
2019-03-23T13:23:38.243Z,101157.80
2019-03-23T13:26:09.031Z,101163.88
2019-03-23T13:28:39.852Z,101152.45
2019-03-23T13:31:10.666Z,101160.95
2019-03-23T13:33:41.546Z,101167.14
2019-03-23T13:36:12.433Z,101156.78
2019-03-23T13:38:43.307Z,101175.73
2019-03-23T13:41:14.293Z,101174.81
2019-03-23T13:43:45.156Z,101166.95
2019-03-23T13:46:15.972Z,101165.09
2019-03-23T13:48:47.957Z,101176.86
2019-03-23T13:51:18.766Z,101176.70
2019-03-23T13:53:49.692Z,101164.25
2019-03-23T13:56:20.593Z,101162.80
2019-03-23T13:58:51.492Z,101154.70
2019-03-23T14:01:23.365Z,101158.77
2019-03-23T14:03:54.371Z,101161.30
2019-03-23T14:06:26.158Z,101159.27
2019-03-23T14:08:57.083Z,101162.14
2019-03-23T14:11:28.059Z,101165.80
2019-03-23T14:13:58.953Z,101170.12
2019-03-23T14:16:29.791Z,101167.75
2019-03-23T14:19:00.724Z,101173.64
2019-03-23T14:21:31.641Z,101177.02
2019-03-23T14:24:02.546Z,101172.30
2019-03-23T14:26:33.418Z,101167.41
2019-03-23T14:29:04.281Z,101168.14
2019-03-23T14:31:35.061Z,101161.16
2019-03-23T14:34:05.895Z,101162.06
2019-03-23T14:36:36.706Z,101171.95
2019-03-23T14:39:07.771Z,101169.56
2019-03-23T14:41:38.640Z,101169.33
2019-03-23T14:44:09.710Z,101166.38
2019-03-23T14:46:40.698Z,101173.47
2019-03-23T14:49:11.598Z,101175.29
2019-03-23T14:51:42.669Z,101172.25
2019-03-23T14:54:13.723Z,101164.09
2019-03-23T14:56:44.622Z,101171.12
2019-03-23T14:59:15.569Z,101183.19
2019-03-23T15:01:46.595Z,101183.20
2019-03-23T15:04:18.654Z,101170.95
2019-03-23T15:06:50.450Z,101178.09
2019-03-23T15:09:21.430Z,101182.62
2019-03-23T15:11:52.589Z,101178.53
2019-03-23T15:14:23.772Z,101178.87
2019-03-23T15:16:54.697Z,101171.81
2019-03-23T15:19:25.661Z,101175.08
2019-03-23T15:21:56.635Z,101186.50
2019-03-23T15:24:27.570Z,101183.59
2019-03-23T15:26:58.421Z,101183.66
2019-03-23T15:29:30.272Z,101187.80
2019-03-23T15:32:01.432Z,101187.41
2019-03-23T15:34:32.480Z,101189.66
2019-03-23T15:37:03.455Z,101186.69
2019-03-23T15:39:34.332Z,101188.47
2019-03-23T15:42:05.173Z,101184.23
2019-03-23T15:44:36.347Z,101180.64
2019-03-23T15:47:07.158Z,101196.65
2019-03-23T15:49:38.116Z,101196.75
2019-03-23T15:52:10.825Z,101204.65
2019-03-23T15:54:41.647Z,101203.84
2019-03-23T15:57:12.830Z,101202.52
2019-03-23T15:59:43.766Z,101199.11
2019-03-23T16:02:14.746Z,101201.87
2019-03-23T16:04:45.731Z,101200.64
2019-03-23T16:07:17.701Z,101203.35
2019-03-23T16:09:48.963Z,101195.91
2019-03-23T16:12:20.062Z,101198.29
2019-03-23T16:14:51.193Z,101204.47
2019-03-23T16:17:22.083Z,101200.46
2019-03-23T16:19:54.641Z,101199.67
2019-03-23T16:22:25.816Z,101199.25
2019-03-23T16:24:57.096Z,101202.50
2019-03-23T16:27:28.059Z,101201.25
2019-03-23T16:29:59.104Z,101204.88
2019-03-23T16:32:31.576Z,101202.16
2019-03-23T16:35:02.552Z,101206.33
2019-03-23T16:37:33.394Z,101209.01
2019-03-23T16:40:07.664Z,101213.44
2019-03-23T16:42:45.171Z,101208.26
2019-03-23T16:45:12.908Z,101209.53
2019-03-23T16:47:48.015Z,101210.51
2019-03-23T16:50:20.683Z,101211.86
2019-03-23T16:52:54.052Z,101210.53
2019-03-23T16:55:27.338Z,101211.91
2019-03-23T16:57:58.275Z,101207.98
2019-03-23T17:00:36.119Z,101215.50
2019-03-23T17:03:08.219Z,101215.55
2019-03-23T17:05:42.158Z,101218.31
2019-03-23T17:08:14.946Z,101218.86
2019-03-23T17:10:48.427Z,101221.92
2019-03-23T17:13:19.398Z,101222.50
2019-03-23T17:15:50.473Z,101225.13
2019-03-23T17:18:23.449Z,101226.94
2019-03-23T17:20:54.446Z,101222.55
2019-03-23T17:23:26.952Z,101229.62
2019-03-23T17:25:59.730Z,101225.64
2019-03-23T17:28:31.729Z,101231.86
2019-03-23T17:31:02.650Z,101228.38
2019-03-23T17:33:33.790Z,101231.93
2019-03-23T17:36:04.898Z,101234.17
2019-03-23T17:38:35.829Z,101227.41
2019-03-23T17:41:10.265Z,101234.55
2019-03-23T17:43:41.233Z,101235.03
2019-03-23T17:46:13.828Z,101241.17
2019-03-23T17:48:44.824Z,101235.91
2019-03-23T17:51:20.330Z,101235.16
2019-03-23T17:53:58.464Z,101230.31
2019-03-23T17:56:26.627Z,101240.86
2019-03-23T17:58:57.783Z,101237.83
2019-03-23T18:01:29.050Z,101238.17
2019-03-23T18:04:00.203Z,101243.52
2019-03-23T18:06:31.399Z,101243.13
2019-03-23T18:09:04.343Z,101241.83
2019-03-23T18:11:35.830Z,101241.36
2019-03-23T18:14:06.686Z,101241.36
2019-03-23T18:16:37.604Z,101240.95
2019-03-23T18:19:08.481Z,101244.94
2019-03-23T18:21:39.426Z,101251.19
2019-03-23T18:24:10.308Z,101249.41
2019-03-23T18:26:41.288Z,101249.87
2019-03-23T18:29:12.267Z,101257.39
2019-03-23T18:31:43.283Z,101260.48
2019-03-23T18:34:14.145Z,101266.69
2019-03-23T18:36:45.098Z,101268.88
2019-03-23T18:39:15.952Z,101265.36
2019-03-23T18:41:46.964Z,101258.34
2019-03-23T18:44:21.021Z,101267.65
2019-03-23T18:46:52.053Z,101262.38
2019-03-23T18:49:22.899Z,101273.42
2019-03-23T18:51:53.905Z,101265.50
2019-03-23T18:54:25.193Z,101269.92
2019-03-23T18:56:57.482Z,101261.59
2019-03-23T18:59:31.403Z,101262.05
2019-03-23T19:02:02.571Z,101268.70
2019-03-23T19:04:34.670Z,101265.66
2019-03-23T19:07:05.745Z,101264.81
2019-03-23T19:09:39.556Z,101263.02
2019-03-23T19:12:11.108Z,101260.37
2019-03-23T19:14:42.011Z,101257.73
2019-03-23T19:17:13.156Z,101262.14
2019-03-23T19:19:44.197Z,101265.69
2019-03-23T19:22:15.216Z,101264.80
2019-03-23T19:24:46.223Z,101260.87
2019-03-23T19:27:17.300Z,101252.95
2019-03-23T19:29:48.374Z,101266.19
2019-03-23T19:32:19.527Z,101260.90
2019-03-23T19:34:50.589Z,101264.00
2019-03-23T19:37:22.795Z,101254.31
2019-03-23T19:39:53.904Z,101255.20
2019-03-23T19:42:25.049Z,101255.66
2019-03-23T19:44:56.227Z,101253.05
2019-03-23T19:47:27.270Z,101251.70
2019-03-23T19:50:00.375Z,101250.36
2019-03-23T19:52:33.593Z,101247.73
2019-03-23T19:55:09.260Z,101247.31
2019-03-23T19:57:42.022Z,101253.02
2019-03-23T20:00:13.081Z,101255.23
2019-03-23T20:02:44.353Z,101261.38
2019-03-23T20:05:15.480Z,101261.83
2019-03-23T20:07:46.730Z,101267.13
2019-03-23T20:10:20.380Z,101264.94
2019-03-23T20:12:52.000Z,101255.23
2019-03-23T20:15:24.169Z,101256.13
2019-03-23T20:17:56.824Z,101257.88
2019-03-23T20:20:30.686Z,101255.70
2019-03-23T20:23:03.453Z,101253.91
2019-03-23T20:25:36.295Z,101253.93
2019-03-23T20:28:07.524Z,101249.54
2019-03-23T20:30:38.510Z,101245.99
2019-03-23T20:33:19.064Z,101242.91
2019-03-23T20:35:44.070Z,101240.29
2019-03-23T20:38:15.135Z,101230.59
2019-03-23T20:40:46.183Z,101224.88
2019-03-23T20:43:17.286Z,101223.98
2019-03-23T20:45:48.286Z,101226.20
2019-03-23T20:48:21.586Z,101228.84
2019-03-23T20:50:52.787Z,101220.49
2019-03-23T20:53:23.931Z,101227.96
2019-03-23T20:55:54.889Z,101235.88
2019-03-23T20:58:29.047Z,101233.23
2019-03-23T21:01:00.013Z,101228.82
2019-03-23T21:03:30.962Z,101229.70
2019-03-23T21:06:03.529Z,101236.73
2019-03-23T21:08:34.640Z,101241.58
2019-03-23T21:11:09.239Z,101237.61
2019-03-23T21:13:39.408Z,101239.34
2019-03-23T21:16:10.470Z,101233.61
2019-03-23T21:18:41.542Z,101224.36
2019-03-23T21:21:12.755Z,101232.30
2019-03-23T21:23:43.878Z,101233.60
2019-03-23T21:26:16.863Z,101234.03
2019-03-23T21:28:47.953Z,101230.52
2019-03-23T21:31:19.135Z,101229.17
2019-03-23T21:33:50.294Z,101228.72
2019-03-23T21:36:21.324Z,101226.95
2019-03-23T21:38:53.468Z,101219.48
2019-03-23T21:41:24.562Z,101215.08
2019-03-23T21:43:55.687Z,101210.67
2019-03-23T21:46:28.908Z,101214.58
2019-03-23T21:48:59.940Z,101215.04
2019-03-23T21:51:30.947Z,101211.98
2019-03-23T21:54:01.993Z,101202.27
2019-03-23T21:56:33.092Z,101198.33
2019-03-23T21:59:04.122Z,101188.22
2019-03-23T22:01:35.525Z,101192.16
2019-03-23T22:04:06.567Z,101187.73
2019-03-23T22:06:37.587Z,101186.42
2019-03-23T22:09:08.678Z,101197.38
2019-03-23T22:11:40.455Z,101191.27
2019-03-23T22:14:11.449Z,101187.34
2019-03-23T22:16:42.492Z,101187.34
2019-03-23T22:19:13.493Z,101193.95
2019-03-23T22:21:44.491Z,101189.99
2019-03-23T22:24:15.514Z,101193.95
2019-03-23T22:26:47.741Z,101181.61
2019-03-23T22:29:18.802Z,101185.98
2019-03-23T22:31:49.732Z,101183.30
2019-03-23T22:34:22.344Z,101182.41
2019-03-23T22:36:53.348Z,101184.19
2019-03-23T22:39:24.380Z,101184.20
2019-03-23T22:41:55.368Z,101180.67
2019-03-23T22:44:26.380Z,101170.56
2019-03-23T22:46:57.407Z,101170.55
2019-03-23T22:49:36.003Z,101169.25
2019-03-23T22:52:06.950Z,101172.71
2019-03-23T22:54:37.924Z,101166.54
2019-03-23T22:57:08.880Z,101170.44
2019-03-23T22:59:39.879Z,101166.05
2019-03-23T23:02:10.818Z,101163.41
2019-03-23T23:04:41.884Z,101166.92
2019-03-23T23:07:13.073Z,101162.59
2019-03-23T23:09:45.734Z,101164.32
2019-03-23T23:12:17.650Z,101165.58
2019-03-23T23:14:48.783Z,101165.08
2019-03-23T23:17:19.695Z,101163.36
2019-03-23T23:19:50.759Z,101156.77
2019-03-23T23:22:21.648Z,101157.23
2019-03-23T23:24:52.679Z,101146.73
2019-03-23T23:27:24.681Z,101149.31
2019-03-23T23:29:55.814Z,101137.47
2019-03-23T23:32:27.958Z,101134.77
2019-03-23T23:34:59.045Z,101130.82
2019-03-23T23:37:29.998Z,101127.78
2019-03-23T23:40:02.138Z,101122.08
2019-03-23T23:42:33.205Z,101129.53
2019-03-23T23:45:15.454Z,101128.66
2019-03-23T23:47:41.163Z,101127.31
2019-03-23T23:50:12.212Z,101119.35
2019-03-23T23:52:43.209Z,101126.84
2019-03-23T23:55:14.150Z,101119.38
2019-03-23T23:57:45.124Z,101120.73
